Página principal
METAR-TAF:

METAR-TAF

Aeroportos :

Madrid-Getafe, Espanha

latitude: 40-18N, longitude: 003-43W, altura: 620 m

Observação actual do tempo

O boletim foi feito há 6 horas e 51 minutos, às 22:00 UTC
Vento 8 kt de nordeste
Temperatura 4°C
Humidade 48%
Pressão 1010 hPa
Visibilidade 10 km ou mais
sem nuvens abaixo de 1500 metros e sem cumulonimbus

METAR: LEGT 212200Z 05008KT CAVOK 04/M06 Q1010

Hora: 05:51 (04:51 UTC)

Previsão

O boletim foi feito há 11 horas e 51 minutos, às 17:00 UTC
Previsão válida de 21 às 18 UTC a 22 às 03 UTC
Vento 12 kt de norte
Visibilidade 10 km ou mais
Nuvens dispersasa uma altura de 4000 ft
Probabilidade 40% :
Temporariamente
de 21 às 18 UTC a 21 às 20 UTC
Vento 20 kt de norte com rajadas de 32 kt

TAF: LEGT 211700Z 2118/2203 01012KT 9999 SCT040 PROB40 TEMPO 2118/2120 01020G32KT

Observações e previsões do tempo de mais de 4000 aeroportos (mensagens METAR e TAF).

As estações disponíveis são os pontos amarelos e vermelhos sobre o mapa.

Mova o rato sobre o mapa para ver o nome da estação.

Depois clique no ponto para visualizar as observações e previsões meteorológicas.

Para alterar o mapa : clique nos botões verdes com uma cruz preta para aumentar o zoom; no botão verde com uma pitada de zoom; ou nas setas verdes para mapas adjacentes.


METAR-TAF: